Time;durP1;ratioP1;P1;durP2;ratioP2;P2;SDS_P1;SDS_P2;PMS_P1;PMS_P2;Temp;Humidity;BMP_temperature;BMP_pressure;BME280_temperature;BME280_humidity;BME280_pressure;Samples;Min_cycle;Max_cycle;Signal;HPM_P1;HPM_P2
2022/06/10 00:00:42;;;;;;;4.30;2.70;;;;;;;25.55;48.31;100114.71;107145;1281;61958;-83
2022/06/10 00:03:12;;;;;;;4.60;2.70;;;;;;;25.55;48.17;100117.96;107027;1283;72736;-83
2022/06/10 00:05:38;;;;;;;4.10;2.60;;;;;;;25.54;48.14;100117.82;107132;1283;76509;-83
2022/06/10 00:08:08;;;;;;;4.30;2.50;;;;;;;25.54;48.20;100113.75;107236;1283;62149;-82
2022/06/10 00:10:34;;;;;;;4.20;2.60;;;;;;;25.54;48.31;100113.39;106834;1283;61886;-83
2022/06/10 00:13:00;;;;;;;4.40;2.50;;;;;;;25.54;48.34;100119.15;106725;1284;62219;-84
2022/06/10 00:15:25;;;;;;;4.80;2.60;;;;;;;25.53;48.34;100120.45;107013;1283;62024;-83
2022/06/10 00:17:51;;;;;;;4.10;2.60;;;;;;;25.53;48.15;100118.99;106964;1284;62158;-83
2022/06/10 00:20:18;;;;;;;3.60;2.60;;;;;;;25.54;48.47;100119.36;107025;1284;62206;-83
2022/06/10 00:22:44;;;;;;;3.70;2.30;;;;;;;25.53;48.26;100121.69;107220;1283;62085;-83
2022/06/10 00:25:10;;;;;;;3.60;2.40;;;;;;;25.54;48.27;100123.48;107241;1283;62086;-84
2022/06/10 00:27:36;;;;;;;4.30;2.30;;;;;;;25.54;48.39;100126.19;106721;1284;62025;-83
2022/06/10 00:30:02;;;;;;;4.40;2.60;;;;;;;25.53;48.25;100125.16;107190;1283;62111;-82
2022/06/10 00:32:28;;;;;;;4.00;2.30;;;;;;;25.53;48.16;100122.83;107020;1283;62568;-83
2022/06/10 00:34:53;;;;;;;3.80;2.50;;;;;;;25.53;48.36;100126.10;106844;1283;62178;-84
2022/06/10 00:37:19;;;;;;;3.30;2.50;;;;;;;25.52;48.28;100122.16;107058;1284;62071;-83
2022/06/10 00:39:45;;;;;;;5.10;2.70;;;;;;;25.53;48.39;100125.38;107026;1284;62036;-85
2022/06/10 00:42:11;;;;;;;4.50;2.60;;;;;;;25.53;48.41;100128.27;107263;1283;62137;-84
2022/06/10 00:44:52;;;;;;;3.70;2.30;;;;;;;25.53;48.39;100136.91;106846;1285;62000;-84
2022/06/10 00:47:31;;;;;;;4.30;2.40;;;;;;;25.52;48.33;100137.48;106845;1284;76351;-83
2022/06/10 00:50:13;;;;;;;5.20;2.60;;;;;;;25.53;48.36;100138.73;107194;1283;62106;-89
2022/06/10 00:52:41;;;;;;;4.00;2.60;;;;;;;25.53;48.42;100144.67;107154;1283;61947;-83
2022/06/10 00:55:06;;;;;;;3.50;2.50;;;;;;;25.52;48.39;100143.13;107242;1283;72704;-84
2022/06/10 00:57:40;;;;;;;4.60;2.80;;;;;;;25.52;48.43;100142.40;106831;1284;62163;-84
2022/06/10 01:00:12;;;;;;;4.60;2.40;;;;;;;25.52;48.22;100142.95;107021;1284;61954;-81
2022/06/10 01:02:38;;;;;;;4.00;2.40;;;;;;;25.52;48.22;100145.83;106919;1283;62703;-88
2022/06/10 01:05:09;;;;;;;4.80;2.50;;;;;;;25.52;48.34;100145.16;106874;1283;62106;-81
2022/06/10 01:07:38;;;;;;;5.10;2.90;;;;;;;25.52;48.34;100143.66;106853;1283;76497;-83
2022/06/10 01:10:06;;;;;;;3.80;2.40;;;;;;;25.52;48.35;100144.36;107151;1283;62050;-83
2022/06/10 01:13:03;;;;;;;4.80;2.50;;;;;;;25.51;48.31;100142.62;107261;1283;61976;-83
2022/06/10 01:15:53;;;;;;;3.30;2.30;;;;;;;25.51;48.52;100141.93;107117;1283;73464;-83
2022/06/10 01:18:40;;;;;;;3.90;2.50;;;;;;;25.51;48.42;100143.56;106283;1287;74321;-87
2022/06/10 01:21:27;;;;;;;4.00;2.30;;;;;;;25.51;48.48;100140.55;106390;1287;61965;-83
2022/06/10 01:24:12;;;;;;;4.10;2.30;;;;;;;25.50;48.39;100137.37;106139;1287;61948;-83
2022/06/10 01:30:06;;;;;;;4.50;2.60;;;;;;;25.49;48.51;100140.67;106441;1287;75498;-84
2022/06/10 01:32:56;;;;;;;3.80;2.40;;;;;;;25.49;48.56;100138.34;106389;1288;62073;-81
2022/06/10 01:35:31;;;;;;;3.70;2.30;;;;;;;25.49;48.53;100131.34;106405;1287;61982;-83
2022/06/10 01:38:11;;;;;;;4.40;2.40;;;;;;;25.49;48.38;100134.92;106225;1289;71752;-83
2022/06/10 01:40:49;;;;;;;4.20;2.60;;;;;;;25.49;48.55;100141.25;106296;1287;76677;-82
2022/06/10 01:43:23;;;;;;;3.80;2.50;;;;;;;25.49;48.44;100149.35;106301;1289;62098;-81
2022/06/10 01:46:00;;;;;;;3.60;2.40;;;;;;;25.49;48.48;100152.45;106417;1289;62082;-83
2022/06/10 01:48:38;;;;;;;4.30;2.50;;;;;;;25.49;48.55;100150.66;106313;1289;72687;-83
2022/06/10 01:51:22;;;;;;;3.80;2.40;;;;;;;25.49;48.65;100152.45;105961;1289;74515;-84
2022/06/10 01:54:12;;;;;;;4.60;2.30;;;;;;;25.49;48.56;100149.92;106329;1287;61948;-83
2022/06/10 01:56:41;;;;;;;4.00;2.40;;;;;;;25.49;48.64;100154.79;106582;1284;62043;-83
2022/06/10 01:59:13;;;;;;;4.50;2.60;;;;;;;25.48;48.69;100149.79;106912;1283;72736;-84
2022/06/10 02:01:41;;;;;;;4.70;2.60;;;;;;;25.49;48.56;100148.67;107273;1281;75362;-82
2022/06/10 02:04:11;;;;;;;4.80;2.60;;;;;;;25.49;48.74;100150.83;106835;1284;60777;-84
2022/06/10 02:07:25;;;;;;;3.90;2.40;;;;;;;25.49;48.68;100151.55;106823;1286;62200;-83
2022/06/10 02:09:53;;;;;;;3.90;2.50;;;;;;;25.48;48.75;100150.38;106156;1290;73693;-84
2022/06/10 02:12:39;;;;;;;3.60;2.60;;;;;;;25.48;48.61;100153.94;106011;1289;76785;-84
2022/06/10 02:15:12;;;;;;;3.30;2.30;;;;;;;25.48;48.79;100156.33;106274;1289;62136;-83
2022/06/10 02:17:39;;;;;;;3.40;2.40;;;;;;;25.49;48.67;100159.51;106267;1289;61830;-86
2022/06/10 02:20:05;;;;;;;3.40;2.40;;;;;;;25.49;48.77;100160.94;106103;1289;73261;-84
2022/06/10 02:22:37;;;;;;;3.90;2.60;;;;;;;25.48;48.88;100161.87;106247;1289;62077;-83
2022/06/10 02:25:16;;;;;;;3.40;2.40;;;;;;;25.48;48.75;100164.55;106142;1289;62110;-84
2022/06/10 02:27:43;;;;;;;4.40;2.50;;;;;;;25.48;48.68;100168.36;106250;1289;61984;-83
2022/06/10 02:30:17;;;;;;;3.60;2.30;;;;;;;25.48;48.88;100169.64;105940;1291;73863;-83
2022/06/10 02:32:43;;;;;;;4.60;2.50;;;;;;;25.48;48.83;100168.90;105992;1290;75418;-84
2022/06/10 02:35:09;;;;;;;4.30;2.60;;;;;;;25.49;48.94;100175.73;106041;1291;62196;-84
2022/06/10 02:38:03;;;;;;;3.90;2.40;;;;;;;25.48;48.81;100175.42;106001;1291;62270;-85
2022/06/10 02:40:29;;;;;;;3.20;2.20;;;;;;;25.48;48.94;100178.86;106220;1283;73788;-83
2022/06/10 02:43:17;;;;;;;4.60;2.40;;;;;;;25.48;48.96;100178.14;107096;1282;76173;-83
2022/06/10 02:46:03;;;;;;;3.70;2.50;;;;;;;25.48;48.96;100183.92;107223;1283;62179;-84
2022/06/10 02:48:33;;;;;;;3.70;2.40;;;;;;;25.47;49.03;100190.23;107259;1283;62078;-86
2022/06/10 02:51:00;;;;;;;4.20;2.20;;;;;;;25.47;49.00;100194.05;107219;1283;73783;-83
2022/06/10 02:53:26;;;;;;;4.20;2.50;;;;;;;25.48;48.99;100189.66;106861;1283;62068;-83
2022/06/10 02:55:51;;;;;;;3.70;2.30;;;;;;;25.47;48.93;100188.98;106864;1284;62200;-83
2022/06/10 03:01:13;;;;;;;3.40;2.40;;;;;;;25.48;49.02;100201.93;107086;1283;72862;-84
2022/06/10 03:04:02;;;;;;;3.50;2.40;;;;;;;25.47;48.95;100205.20;107192;1281;76617;-81
2022/06/10 03:06:59;;;;;;;3.70;2.40;;;;;;;25.48;49.19;100205.36;107078;1281;62443;-83
2022/06/10 03:10:01;;;;;;;3.60;2.30;;;;;;;25.47;49.07;100204.52;106903;1281;61843;-84
2022/06/10 03:12:39;;;;;;;4.10;2.40;;;;;;;25.47;49.22;100203.44;107214;1283;73888;-82
2022/06/10 03:15:24;;;;;;;4.80;2.60;;;;;;;25.47;48.99;100207.20;106858;1284;76563;-84
2022/06/10 03:18:05;;;;;;;3.80;2.30;;;;;;;25.47;49.24;100212.80;106976;1283;62119;-84
2022/06/10 03:20:42;;;;;;;3.30;2.20;;;;;;;25.47;49.22;100220.02;107170;1281;62096;-83
2022/06/10 03:23:11;;;;;;;5.10;2.50;;;;;;;25.48;49.02;100223.00;106878;1283;74062;-84
2022/06/10 03:25:56;;;;;;;3.50;2.30;;;;;;;25.47;49.14;100223.76;107182;1281;76596;-82
2022/06/10 03:28:48;;;;;;;4.40;2.30;;;;;;;25.47;49.13;100223.59;107046;1283;62076;-84
2022/06/10 03:31:40;;;;;;;3.70;2.50;;;;;;;25.47;49.17;100225.38;107056;1282;62395;-83
2022/06/10 03:34:19;;;;;;;4.30;2.70;;;;;;;25.47;49.02;100228.84;107255;1281;72741;-82
2022/06/10 03:36:46;;;;;;;5.80;2.60;;;;;;;25.47;49.18;100231.34;107200;1281;76416;-84
2022/06/10 03:39:12;;;;;;;4.20;2.60;;;;;;;25.47;49.01;100227.56;106930;1282;62043;-84
2022/06/10 03:41:41;;;;;;;6.00;2.90;;;;;;;25.47;49.15;100229.36;107283;1281;62159;-83
2022/06/10 03:44:14;;;;;;;5.90;3.10;;;;;;;25.47;49.07;100224.48;106979;1283;72532;-85
2022/06/10 03:46:40;;;;;;;6.80;3.50;;;;;;;25.47;49.15;100225.94;107196;1281;76476;-83
2022/06/10 03:49:10;;;;;;;5.00;3.00;;;;;;;25.47;49.03;100222.73;107214;1281;61963;-87
2022/06/10 03:51:36;;;;;;;6.70;3.60;;;;;;;25.46;48.84;100219.91;107278;1281;62074;-83
2022/06/10 03:54:02;;;;;;;6.30;3.60;;;;;;;25.45;48.96;100222.14;107272;1281;73713;-84
2022/06/10 03:56:30;;;;;;;6.50;3.70;;;;;;;25.45;48.85;100225.20;107245;1281;62169;-84
2022/06/10 03:58:57;;;;;;;5.50;4.20;;;;;;;25.45;48.83;100230.10;107221;1281;61937;-84
2022/06/10 04:01:23;;;;;;;4.30;3.10;;;;;;;25.44;48.87;100233.27;107028;1283;61925;-85
2022/06/10 04:03:48;;;;;;;9.80;5.40;;;;;;;25.42;48.72;100234.85;106978;1283;62181;-84
2022/06/10 04:06:16;;;;;;;10.20;5.00;;;;;;;25.42;48.62;100235.27;107208;1283;62314;-81
2022/06/10 04:08:41;;;;;;;7.80;5.10;;;;;;;25.41;48.52;100241.31;107194;1282;62591;-86
2022/06/10 04:11:07;;;;;;;7.40;4.70;;;;;;;25.40;48.43;100242.28;107255;1283;62180;-83
2022/06/10 04:13:33;;;;;;;6.70;5.00;;;;;;;25.39;48.33;100245.41;106951;1283;62081;-83
2022/06/10 04:15:58;;;;;;;8.80;5.40;;;;;;;25.38;48.50;100243.88;107253;1281;62076;-81
2022/06/10 04:18:25;;;;;;;7.10;4.50;;;;;;;25.38;48.22;100248.60;106993;1283;62053;-82
2022/06/10 04:20:50;;;;;;;8.00;5.50;;;;;;;25.38;48.29;100251.17;107232;1281;62070;-83
2022/06/10 04:23:16;;;;;;;5.80;4.60;;;;;;;25.36;48.21;100250.24;106976;1281;62078;-83
2022/06/10 04:25:43;;;;;;;10.80;5.60;;;;;;;25.35;48.15;100251.75;106945;1281;62047;-82
2022/06/10 04:28:10;;;;;;;8.10;4.90;;;;;;;25.36;48.17;100251.92;106900;1283;63489;-83
2022/06/10 04:30:39;;;;;;;7.90;5.00;;;;;;;25.35;47.92;100246.58;107029;1281;62136;-83
2022/06/10 04:33:05;;;;;;;7.10;4.60;;;;;;;25.34;48.00;100248.79;106940;1283;61974;-85
2022/06/10 04:35:32;;;;;;;6.90;4.90;;;;;;;25.34;48.09;100248.48;107223;1283;62086;-83
2022/06/10 04:37:58;;;;;;;9.90;5.80;;;;;;;25.33;47.96;100248.70;106900;1283;76570;-83
2022/06/10 04:40:26;;;;;;;7.50;5.50;;;;;;;25.33;47.82;100253.77;106958;1283;62088;-84
2022/06/10 04:42:52;;;;;;;11.30;6.40;;;;;;;25.32;47.86;100260.15;106989;1283;62028;-83
2022/06/10 04:45:19;;;;;;;7.70;5.10;;;;;;;25.32;48.02;100264.09;106910;1283;62056;-83
2022/06/10 04:47:45;;;;;;;8.00;5.30;;;;;;;25.32;47.93;100269.54;106823;1283;75566;-82
2022/06/10 04:50:12;;;;;;;6.20;4.50;;;;;;;25.33;47.82;100271.27;107149;1281;59469;-83
2022/06/10 04:52:38;;;;;;;9.40;4.70;;;;;;;25.33;47.77;100273.41;106938;1281;62104;-82
2022/06/10 04:55:05;;;;;;;8.80;5.00;;;;;;;25.33;47.80;100269.20;106883;1283;62177;-85
2022/06/10 04:57:31;;;;;;;12.00;4.90;;;;;;;25.34;47.95;100272.94;107163;1283;62021;-83
2022/06/10 04:59:57;;;;;;;6.30;4.50;;;;;;;25.35;47.82;100277.58;106887;1283;63924;-83
2022/06/10 05:02:23;;;;;;;7.80;4.50;;;;;;;25.35;47.85;100279.85;106916;1283;62024;-83
2022/06/10 05:04:48;;;;;;;7.10;4.70;;;;;;;25.35;47.91;100282.76;106758;1281;62004;-81
2022/06/10 05:07:14;;;;;;;7.40;4.70;;;;;;;25.36;47.84;100282.34;107145;1281;62058;-81
2022/06/10 05:09:40;;;;;;;7.60;4.70;;;;;;;25.35;47.88;100282.55;106968;1281;62027;-82
2022/06/10 05:12:05;;;;;;;9.10;4.90;;;;;;;25.36;47.88;100288.50;106553;1283;61977;-82
2022/06/10 05:14:31;;;;;;;9.00;4.60;;;;;;;25.35;47.92;100291.59;107155;1283;62055;-80
2022/06/10 05:16:57;;;;;;;8.00;4.80;;;;;;;25.35;47.74;100292.17;106959;1283;62076;-82
2022/06/10 05:19:23;;;;;;;7.40;4.20;;;;;;;25.35;47.79;100293.25;106899;1283;62100;-81
2022/06/10 05:21:49;;;;;;;9.20;4.60;;;;;;;25.35;47.59;100294.13;106922;1283;62097;-82
2022/06/10 05:24:15;;;;;;;5.90;4.30;;;;;;;25.34;47.74;100300.46;106904;1283;59531;-80
2022/06/10 05:26:41;;;;;;;7.10;4.10;;;;;;;25.35;47.69;100307.30;106850;1283;62085;-83
2022/06/10 05:29:07;;;;;;;8.70;4.40;;;;;;;25.34;47.70;100312.56;106950;1283;62055;-83
2022/06/10 05:31:32;;;;;;;6.30;4.10;;;;;;;25.34;47.74;100318.55;106848;1283;75471;-82
2022/06/10 05:36:42;;;;;;;6.90;4.00;;;;;;;25.33;47.81;100322.58;107115;1281;62070;-82
2022/06/10 05:39:08;;;;;;;5.70;4.00;;;;;;;25.33;47.78;100325.48;106986;1283;62053;-82
2022/06/10 05:44:18;;;;;;;6.80;4.20;;;;;;;25.33;47.72;100327.81;107035;1281;62050;-83
2022/06/10 05:46:43;;;;;;;6.80;3.90;;;;;;;25.32;47.74;100325.14;107192;1281;62088;-82
2022/06/10 05:49:09;;;;;;;7.00;3.80;;;;;;;25.33;47.56;100325.98;106984;1283;62014;-83
2022/06/10 05:51:35;;;;;;;6.10;3.70;;;;;;;25.34;47.79;100322.86;106850;1283;62072;-84
2022/06/10 05:54:00;;;;;;;7.70;3.60;;;;;;;25.35;47.63;100324.19;106867;1283;62045;-82
2022/06/10 05:56:26;;;;;;;5.20;3.60;;;;;;;25.37;47.62;100322.05;106886;1281;62178;-82
2022/06/10 05:58:52;;;;;;;5.90;3.70;;;;;;;25.38;47.63;100324.59;107116;1281;61922;-81
2022/06/10 06:01:17;;;;;;;7.60;3.70;;;;;;;25.39;47.61;100328.69;107149;1281;60065;-81
2022/06/10 06:03:43;;;;;;;6.00;3.30;;;;;;;25.40;47.56;100339.38;107085;1282;62103;-82
2022/06/10 06:06:10;;;;;;;4.50;3.40;;;;;;;25.40;47.65;100341.17;106858;1283;62042;-82
2022/06/10 06:08:36;;;;;;;5.30;3.50;;;;;;;25.41;47.58;100345.02;106743;1283;62122;-81
2022/06/10 06:11:01;;;;;;;4.50;3.20;;;;;;;25.43;47.60;100346.48;107139;1281;62163;-81
2022/06/10 06:13:27;;;;;;;6.90;3.50;;;;;;;25.44;47.47;100343.38;107026;1281;62118;-82
2022/06/10 06:15:53;;;;;;;5.80;4.00;;;;;;;25.45;47.52;100348.85;106517;1281;777957;-82
2022/06/10 06:18:18;;;;;;;5.80;3.60;;;;;;;25.45;47.46;100348.83;107163;1281;62104;-82
2022/06/10 06:20:44;;;;;;;5.80;3.80;;;;;;;25.46;47.38;100344.05;106776;1283;59747;-82
2022/06/10 06:23:11;;;;;;;6.60;3.70;;;;;;;25.46;47.37;100345.67;106741;1284;62063;-82
2022/06/10 06:25:37;;;;;;;6.00;3.50;;;;;;;25.46;47.32;100339.55;106987;1283;62174;-82
2022/06/10 06:28:04;;;;;;;5.40;3.80;;;;;;;25.46;47.32;100342.62;106762;1283;62047;-82
2022/06/10 06:30:31;;;;;;;4.30;3.20;;;;;;;25.46;47.43;100346.58;106892;1283;61963;-82
2022/06/10 06:33:02;;;;;;;4.10;3.30;;;;;;;25.47;47.41;100341.87;106765;1283;62150;-82
2022/06/10 06:35:29;;;;;;;5.20;3.70;;;;;;;25.47;47.30;100338.21;106782;1283;75390;-82
2022/06/10 06:37:54;;;;;;;4.80;3.60;;;;;;;25.47;47.32;100341.65;106923;1282;62057;-82
2022/06/10 06:40:21;;;;;;;6.40;3.50;;;;;;;25.47;47.47;100340.35;106685;1283;62066;-82
2022/06/10 06:42:47;;;;;;;5.20;3.60;;;;;;;25.48;47.29;100343.86;107145;1281;62050;-82
2022/06/10 06:45:13;;;;;;;4.70;3.30;;;;;;;25.48;47.39;100342.21;106842;1281;61981;-82
2022/06/10 06:47:40;;;;;;;6.80;3.70;;;;;;;25.49;47.47;100341.59;106771;1283;62217;-83
2022/06/10 06:50:06;;;;;;;5.40;3.30;;;;;;;25.49;47.43;100341.02;107166;1281;62048;-81
2022/06/10 06:52:32;;;;;;;5.10;3.70;;;;;;;25.50;47.37;100340.05;106741;1283;62003;-83
2022/06/10 06:54:57;;;;;;;5.80;3.10;;;;;;;25.50;47.33;100340.39;107022;1281;62017;-83
2022/06/10 06:57:25;;;;;;;4.90;3.00;;;;;;;25.50;47.37;100331.06;106877;1282;62090;-82
2022/06/10 06:59:53;;;;;;;5.50;3.40;;;;;;;25.50;47.25;100332.14;107098;1281;62072;-82
2022/06/10 07:02:20;;;;;;;4.50;3.10;;;;;;;25.50;47.15;100329.17;106787;1281;62757;-82
2022/06/10 07:04:45;;;;;;;4.40;3.10;;;;;;;25.51;47.20;100330.36;106767;1283;62111;-83
2022/06/10 07:07:11;;;;;;;4.10;2.80;;;;;;;25.52;47.15;100333.04;106945;1283;61976;-84
2022/06/10 07:09:37;;;;;;;4.40;3.20;;;;;;;25.53;47.25;100338.01;106867;1283;60898;-84
2022/06/10 07:12:03;;;;;;;4.60;3.00;;;;;;;25.53;47.02;100345.89;106951;1283;62072;-83
2022/06/10 07:14:28;;;;;;;5.40;3.00;;;;;;;25.53;47.12;100341.71;106968;1281;61967;-82
2022/06/10 07:16:54;;;;;;;5.80;3.20;;;;;;;25.53;47.04;100340.66;106839;1281;62201;-83
2022/06/10 07:19:20;;;;;;;6.50;2.90;;;;;;;25.53;46.94;100346.02;107226;1283;61937;-83
2022/06/10 07:21:46;;;;;;;6.60;3.30;;;;;;;25.52;46.77;100343.77;106782;1283;62078;-82
2022/06/10 07:24:12;;;;;;;5.20;3.10;;;;;;;25.53;46.91;100352.41;106727;1283;62107;-82
2022/06/10 07:26:37;;;;;;;5.70;3.00;;;;;;;25.52;46.89;100348.00;106769;1283;62018;-83
2022/06/10 07:29:03;;;;;;;5.70;2.80;;;;;;;25.51;46.78;100349.70;106820;1283;62089;-83
2022/06/10 07:31:29;;;;;;;4.80;3.20;;;;;;;25.50;46.93;100344.16;107131;1283;62496;-83
2022/06/10 07:33:55;;;;;;;4.30;3.00;;;;;;;25.50;46.83;100348.36;107196;1283;62082;-85
2022/06/10 07:36:20;;;;;;;5.10;3.10;;;;;;;25.50;46.82;100352.88;106772;1283;73623;-82
2022/06/10 07:38:46;;;;;;;4.80;3.00;;;;;;;25.50;46.83;100349.46;106732;1283;62108;-82
2022/06/10 07:43:56;;;;;;;5.00;2.90;;;;;;;25.49;46.77;100349.72;106814;1283;62172;-81
2022/06/10 07:46:22;;;;;;;5.60;2.90;;;;;;;25.48;46.88;100344.71;106836;1283;62106;-82
2022/06/10 07:48:48;;;;;;;4.80;2.90;;;;;;;25.48;46.72;100344.35;106790;1283;62549;-82
2022/06/10 07:51:14;;;;;;;5.90;3.20;;;;;;;25.49;46.53;100342.27;106972;1283;62107;-82
2022/06/10 07:53:41;;;;;;;5.00;3.00;;;;;;;25.50;46.76;100347.61;106904;1283;62047;-82
2022/06/10 07:56:07;;;;;;;5.10;3.00;;;;;;;25.51;46.55;100348.02;107176;1283;61963;-83
2022/06/10 07:58:32;;;;;;;5.30;3.00;;;;;;;25.52;46.61;100345.41;106811;1283;62162;-83
2022/06/10 08:00:58;;;;;;;4.80;2.90;;;;;;;25.53;46.43;100347.17;106856;1283;62228;-82
2022/06/10 08:03:25;;;;;;;4.20;3.00;;;;;;;25.53;46.58;100346.60;106955;1283;62214;-83
2022/06/10 08:05:50;;;;;;;5.20;2.90;;;;;;;25.53;46.61;100350.52;106992;1283;62149;-82
2022/06/10 08:08:17;;;;;;;6.30;3.10;;;;;;;25.54;46.62;100350.66;106978;1283;62189;-83
2022/06/10 08:10:43;;;;;;;5.30;3.00;;;;;;;25.54;46.62;100351.00;107137;1283;62239;-83
2022/06/10 08:13:09;;;;;;;5.30;3.20;;;;;;;25.54;46.65;100349.58;106915;1283;61952;-83
2022/06/10 08:15:35;;;;;;;4.80;3.10;;;;;;;25.53;46.67;100351.77;106805;1283;62208;-83
2022/06/10 08:18:01;;;;;;;4.80;3.10;;;;;;;25.54;46.59;100350.11;106906;1283;62168;-83
2022/06/10 08:23:14;;;;;;;6.60;3.20;;;;;;;25.55;46.47;100351.09;106944;1283;60705;-83
2022/06/10 08:25:40;;;;;;;5.30;3.20;;;;;;;25.55;46.59;100353.58;106548;1283;62085;-82
2022/06/10 08:28:06;;;;;;;7.20;3.60;;;;;;;25.55;46.63;100356.25;106868;1283;62115;-81
2022/06/10 08:30:31;;;;;;;5.40;3.40;;;;;;;25.56;46.47;100355.15;106786;1283;62237;-82
2022/06/10 08:32:57;;;;;;;6.80;3.50;;;;;;;25.57;46.61;100360.84;106812;1283;62661;-83
2022/06/10 08:35:23;;;;;;;7.20;3.60;;;;;;;25.57;46.70;100363.67;107176;1281;62077;-82
2022/06/10 08:37:48;;;;;;;6.30;3.30;;;;;;;25.57;46.76;100363.50;107010;1283;62018;-82
2022/06/10 08:40:34;;;;;;;8.10;3.70;;;;;;;25.58;46.63;100364.13;106821;1283;62216;-83
2022/06/10 08:43:08;;;;;;;4.50;3.00;;;;;;;25.58;46.76;100355.96;107074;1282;76465;-84
2022/06/10 08:45:43;;;;;;;5.50;3.60;;;;;;;25.59;46.60;100363.66;106889;1283;62234;-82
2022/06/10 08:48:15;;;;;;;6.20;3.60;;;;;;;25.59;46.67;100366.48;106860;1281;62014;-82
2022/06/10 08:51:09;;;;;;;6.60;3.70;;;;;;;25.59;46.53;100359.14;107006;1283;73590;-81
2022/06/10 08:53:41;;;;;;;9.10;3.60;;;;;;;25.58;46.52;100361.55;107184;1282;75564;-82
2022/06/10 08:56:22;;;;;;;7.40;3.80;;;;;;;25.59;46.45;100360.96;106626;1283;61941;-82
2022/06/10 08:58:56;;;;;;;5.70;3.10;;;;;;;25.59;46.43;100363.50;106876;1283;62054;-82
2022/06/10 09:01:23;;;;;;;5.60;3.30;;;;;;;25.59;46.62;100362.75;106977;1283;71612;-82
2022/06/10 09:04:02;;;;;;;7.40;3.50;;;;;;;25.60;46.57;100364.48;106891;1283;61726;-82
2022/06/10 09:06:34;;;;;;;5.00;3.30;;;;;;;25.60;46.44;100363.41;106878;1282;61934;-82
2022/06/10 09:09:02;;;;;;;6.70;3.60;;;;;;;25.60;46.60;100364.80;107188;1283;61498;-83
2022/06/10 09:11:37;;;;;;;5.30;3.60;;;;;;;25.60;46.41;100364.09;106887;1281;72817;-82
2022/06/10 09:14:11;;;;;;;6.20;3.40;;;;;;;25.59;46.26;100363.05;107232;1281;76706;-81
2022/06/10 09:17:07;;;;;;;5.50;3.30;;;;;;;25.60;46.42;100360.70;107187;1281;61965;-84
2022/06/10 09:19:39;;;;;;;5.70;3.20;;;;;;;25.59;46.40;100361.70;106922;1281;62092;-84
2022/06/10 09:22:27;;;;;;;6.50;3.50;;;;;;;25.58;46.37;100356.66;107177;1281;73054;-82
2022/06/10 09:25:29;;;;;;;4.90;3.20;;;;;;;25.58;46.20;100356.50;106851;1281;75321;-82
2022/06/10 09:27:56;;;;;;;6.20;3.60;;;;;;;25.57;46.35;100358.27;107183;1281;62058;-82
2022/06/10 09:30:27;;;;;;;5.40;3.30;;;;;;;25.57;46.25;100357.70;106920;1283;61900;-83
2022/06/10 09:32:52;;;;;;;5.40;3.40;;;;;;;25.57;46.17;100361.31;107101;1281;73059;-83
2022/06/10 09:35:33;;;;;;;5.30;3.10;;;;;;;25.57;46.19;100363.85;107228;1281;62552;-80
2022/06/10 09:38:20;;;;;;;7.90;3.50;;;;;;;25.56;46.25;100362.13;107058;1281;62426;-81
2022/06/10 09:40:54;;;;;;;4.80;2.90;;;;;;;25.56;46.38;100365.70;106884;1282;61967;-82
2022/06/10 09:43:49;;;;;;;5.90;3.60;;;;;;;25.57;46.16;100373.44;106891;1283;73550;-82
2022/06/10 09:46:17;;;;;;;7.30;3.40;;;;;;;25.56;46.20;100368.06;106457;1283;76355;-82
2022/06/10 09:48:57;;;;;;;4.90;3.10;;;;;;;25.56;46.26;100369.70;107178;1281;61922;-81
2022/06/10 09:51:45;;;;;;;8.60;3.50;;;;;;;25.56;46.21;100369.15;106736;1283;62279;-82
2022/06/10 09:54:16;;;;;;;5.70;3.40;;;;;;;25.56;46.06;100363.92;106986;1283;72341;-82
2022/06/10 09:56:51;;;;;;;6.90;3.50;;;;;;;25.56;46.13;100369.52;107224;1281;76387;-83
2022/06/10 09:59:25;;;;;;;5.50;3.40;;;;;;;25.56;46.12;100368.95;107153;1283;61930;-82
2022/06/10 10:02:29;;;;;;;6.10;3.50;;;;;;;25.57;46.08;100369.63;106887;1283;62076;-82
2022/06/10 10:05:13;;;;;;;5.60;3.20;;;;;;;25.58;46.29;100367.05;106585;1283;72889;-83
2022/06/10 10:07:53;;;;;;;5.90;3.30;;;;;;;25.57;46.12;100367.05;106864;1283;75795;-80
2022/06/10 10:10:28;;;;;;;6.80;3.40;;;;;;;25.58;46.20;100366.66;107256;1281;61919;-81
2022/06/10 10:13:22;;;;;;;5.80;3.50;;;;;;;25.58;46.39;100366.59;107197;1281;62232;-83
2022/06/10 10:15:54;;;;;;;6.60;3.40;;;;;;;25.58;46.48;100366.77;107148;1281;72575;-82
2022/06/10 10:18:35;;;;;;;7.90;3.30;;;;;;;25.59;46.26;100365.59;107086;1281;74790;-83
2022/06/10 10:21:14;;;;;;;6.40;3.20;;;;;;;25.60;46.36;100368.11;107265;1281;61961;-83
2022/06/10 10:24:10;;;;;;;5.90;3.10;;;;;;;25.60;46.33;100370.40;107046;1281;62024;-83
2022/06/10 10:26:37;;;;;;;6.10;3.40;;;;;;;25.60;46.32;100374.92;106152;1288;73512;-82
2022/06/10 10:29:15;;;;;;;6.50;3.30;;;;;;;25.60;46.31;100372.58;106069;1289;75508;-85
2022/06/10 10:32:07;;;;;;;3.70;3.00;;;;;;;25.60;46.49;100368.58;106426;1288;62084;-80
2022/06/10 10:34:36;;;;;;;5.60;3.20;;;;;;;25.61;46.44;100358.79;106340;1289;62117;-82
2022/06/10 10:37:04;;;;;;;5.60;3.10;;;;;;;25.61;46.22;100357.68;105886;1289;70327;-80
2022/06/10 10:39:38;;;;;;;4.70;3.00;;;;;;;25.61;46.32;100361.46;105940;1289;75579;-82
2022/06/10 10:42:23;;;;;;;6.10;3.60;;;;;;;25.62;46.39;100359.95;106037;1289;61866;-82
2022/06/10 10:44:58;;;;;;;7.80;3.40;;;;;;;25.63;46.45;100361.21;106089;1289;62402;-81
2022/06/10 10:47:24;;;;;;;6.00;3.30;;;;;;;25.63;46.58;100362.05;106171;1289;72774;-83
2022/06/10 10:50:16;;;;;;;6.00;3.10;;;;;;;25.63;46.36;100362.58;106174;1289;75365;-85
2022/06/10 10:52:44;;;;;;;6.40;3.20;;;;;;;25.63;46.44;100359.85;106285;1288;62070;-83
2022/06/10 10:55:09;;;;;;;4.90;3.10;;;;;;;25.64;46.74;100352.77;106042;1289;61978;-82
2022/06/10 10:58:00;;;;;;;4.60;3.20;;;;;;;25.64;46.62;100357.80;106131;1286;62048;-81
2022/06/10 11:00:53;;;;;;;5.30;3.10;;;;;;;25.65;46.69;100353.05;106189;1289;76348;-82
2022/06/10 11:03:30;;;;;;;6.20;3.10;;;;;;;25.65;46.63;100348.30;106082;1283;62079;-81
2022/06/10 11:05:59;;;;;;;7.90;3.40;;;;;;;25.65;46.62;100344.52;106853;1283;61940;-80
2022/06/10 11:08:30;;;;;;;5.20;3.40;;;;;;;25.65;46.66;100346.47;106997;1283;72027;-81
2022/06/10 11:11:10;;;;;;;4.70;3.00;;;;;;;25.66;46.69;100343.40;106854;1283;75445;-83
2022/06/10 11:13:42;;;;;;;5.80;3.50;;;;;;;25.66;46.75;100342.29;107194;1281;61930;-83
2022/06/10 11:16:34;;;;;;;4.90;3.20;;;;;;;25.66;46.69;100340.80;107065;1283;62049;-82
2022/06/10 11:19:31;;;;;;;7.80;3.20;;;;;;;25.66;46.79;100337.94;107012;1283;71524;-82
2022/06/10 11:22:19;;;;;;;4.90;3.30;;;;;;;25.66;46.79;100332.55;107036;1283;75447;-82
2022/06/10 11:25:03;;;;;;;7.70;3.40;;;;;;;25.66;46.94;100330.40;106683;1283;62497;-82
2022/06/10 11:27:37;;;;;;;6.20;3.20;;;;;;;25.66;46.68;100334.21;107220;1282;62095;-83
2022/06/10 11:30:23;;;;;;;4.90;3.40;;;;;;;25.65;46.77;100334.91;106956;1283;73886;-83
2022/06/10 11:32:49;;;;;;;6.10;3.40;;;;;;;25.66;46.88;100332.21;107227;1282;78522;-82
2022/06/10 11:35:28;;;;;;;6.20;3.30;;;;;;;25.65;46.92;100331.91;107238;1283;62074;-83
2022/06/10 11:38:24;;;;;;;4.90;3.40;;;;;;;25.65;46.92;100334.23;106805;1283;62075;-82
2022/06/10 11:40:51;;;;;;;4.80;3.00;;;;;;;25.65;46.91;100333.55;106241;1289;74254;-82
2022/06/10 11:43:27;;;;;;;4.60;2.80;;;;;;;25.66;46.97;100338.36;106394;1289;76378;-83
2022/06/10 11:46:01;;;;;;;4.90;3.20;;;;;;;25.65;46.73;100338.73;106278;1289;62016;-83
2022/06/10 11:48:34;;;;;;;4.80;3.00;;;;;;;25.66;46.87;100339.78;106403;1288;62266;-83
2022/06/10 11:51:01;;;;;;;4.90;2.90;;;;;;;25.66;46.78;100328.06;106075;1289;72373;-80
2022/06/10 11:54:37;;;;;;;5.10;3.10;;;;;;;25.66;46.85;100330.02;105985;1290;77033;-83
2022/06/10 12:00:55;;;;;;;5.40;3.40;;;;;;;25.65;47.07;100322.34;104588;1303;62146;-82